sensor_id;sensor_type;location;lat;lon;timestamp;pressure;altitude;pressure_sealevel;temperature;humidity
68476;BME280;55464;48.266;14.188;2023-03-26T00:00:43;97283.59;;;9.36;63.34
68476;BME280;55464;48.266;14.188;2023-03-26T00:03:13;97277.72;;;9.38;63.62
68476;BME280;55464;48.266;14.188;2023-03-26T00:05:41;97277.72;;;9.38;64.19
68476;BME280;55464;48.266;14.188;2023-03-26T00:08:07;97269.38;;;9.34;64.37
68476;BME280;55464;48.266;14.188;2023-03-26T00:10:37;97273.72;;;9.35;64.20
68476;BME280;55464;48.266;14.188;2023-03-26T00:13:04;97273.38;;;9.37;64.26
68476;BME280;55464;48.266;14.188;2023-03-26T00:15:31;97271.22;;;9.30;64.64
68476;BME280;55464;48.266;14.188;2023-03-26T00:17:57;97281.97;;;9.35;64.43
68476;BME280;55464;48.266;14.188;2023-03-26T00:20:25;97269.97;;;9.27;64.50
68476;BME280;55464;48.266;14.188;2023-03-26T00:22:51;97276.81;;;9.34;64.40
68476;BME280;55464;48.266;14.188;2023-03-26T00:25:18;97266.63;;;9.34;64.38
68476;BME280;55464;48.266;14.188;2023-03-26T00:27:44;97271.41;;;9.37;64.52
68476;BME280;55464;48.266;14.188;2023-03-26T00:30:10;97265.91;;;9.37;64.37
68476;BME280;55464;48.266;14.188;2023-03-26T00:32:36;97264.44;;;9.40;64.14
68476;BME280;55464;48.266;14.188;2023-03-26T00:35:02;97262.03;;;9.38;64.11
68476;BME280;55464;48.266;14.188;2023-03-26T00:37:28;97264.78;;;9.38;64.28
68476;BME280;55464;48.266;14.188;2023-03-26T00:39:56;97264.09;;;9.41;64.40
68476;BME280;55464;48.266;14.188;2023-03-26T00:42:24;97264.88;;;9.42;63.60
68476;BME280;55464;48.266;14.188;2023-03-26T00:44:50;97264.53;;;9.43;63.60
68476;BME280;55464;48.266;14.188;2023-03-26T00:47:20;97263.81;;;9.46;63.55
68476;BME280;55464;48.266;14.188;2023-03-26T00:49:45;97255.94;;;9.45;63.68
68476;BME280;55464;48.266;14.188;2023-03-26T00:52:14;97257.97;;;9.48;63.60
68476;BME280;55464;48.266;14.188;2023-03-26T00:54:46;97252.91;;;9.50;63.35
68476;BME280;55464;48.266;14.188;2023-03-26T00:57:13;97248.56;;;9.49;63.68
68476;BME280;55464;48.266;14.188;2023-03-26T00:59:39;97249.03;;;9.51;63.73
68476;BME280;55464;48.266;14.188;2023-03-26T01:02:06;97245.47;;;9.51;64.03
68476;BME280;55464;48.266;14.188;2023-03-26T01:04:35;97239.16;;;9.50;64.05
68476;BME280;55464;48.266;14.188;2023-03-26T01:07:10;97232.25;;;9.56;63.97
68476;BME280;55464;48.266;14.188;2023-03-26T01:09:40;97224.38;;;9.55;63.58
68476;BME280;55464;48.266;14.188;2023-03-26T01:12:13;97236.25;;;9.59;63.62
68476;BME280;55464;48.266;14.188;2023-03-26T01:14:43;97231.66;;;9.63;63.61
68476;BME280;55464;48.266;14.188;2023-03-26T01:17:10;97222.50;;;9.59;63.49
68476;BME280;55464;48.266;14.188;2023-03-26T01:22:35;97224.09;;;9.60;63.03
68476;BME280;55464;48.266;14.188;2023-03-26T01:25:02;97223.41;;;9.63;62.62
68476;BME280;55464;48.266;14.188;2023-03-26T01:27:43;97219.41;;;9.60;62.69
68476;BME280;55464;48.266;14.188;2023-03-26T01:35:34;97209.91;;;9.58;62.20
68476;BME280;55464;48.266;14.188;2023-03-26T01:38:32;97206.81;;;9.59;62.31
68476;BME280;55464;48.266;14.188;2023-03-26T01:41:25;97203.72;;;9.61;62.05
68476;BME280;55464;48.266;14.188;2023-03-26T01:44:06;97202.88;;;9.60;62.00
68476;BME280;55464;48.266;14.188;2023-03-26T01:46:35;97199.34;;;9.60;61.98
68476;BME280;55464;48.266;14.188;2023-03-26T01:49:05;97207.69;;;9.63;62.05
68476;BME280;55464;48.266;14.188;2023-03-26T01:51:38;97206.91;;;9.63;62.22
68476;BME280;55464;48.266;14.188;2023-03-26T01:54:08;97213.47;;;9.74;61.69
68476;BME280;55464;48.266;14.188;2023-03-26T01:56:49;97203.72;;;9.61;61.86
68476;BME280;55464;48.266;14.188;2023-03-26T02:02:09;97216.75;;;9.64;62.33
68476;BME280;55464;48.266;14.188;2023-03-26T02:10:09;97204.25;;;9.67;62.27
68476;BME280;55464;48.266;14.188;2023-03-26T02:12:37;97190.50;;;9.67;62.33
68476;BME280;55464;48.266;14.188;2023-03-26T02:15:03;97190.84;;;9.65;62.26
68476;BME280;55464;48.266;14.188;2023-03-26T02:17:28;97195.09;;;9.62;62.32
68476;BME280;55464;48.266;14.188;2023-03-26T02:19:56;97192.72;;;9.61;61.99
68476;BME280;55464;48.266;14.188;2023-03-26T02:22:22;97198.13;;;9.57;62.13
68476;BME280;55464;48.266;14.188;2023-03-26T02:24:53;97195.38;;;9.57;62.41
68476;BME280;55464;48.266;14.188;2023-03-26T02:27:19;97188.59;;;9.55;62.26
68476;BME280;55464;48.266;14.188;2023-03-26T02:29:44;97194.09;;;9.55;62.26
68476;BME280;55464;48.266;14.188;2023-03-26T02:32:12;97186.53;;;9.52;62.44
68476;BME280;55464;48.266;14.188;2023-03-26T02:34:41;97184.13;;;9.50;62.40
68476;BME280;55464;48.266;14.188;2023-03-26T02:37:07;97180.34;;;9.55;62.17
68476;BME280;55464;48.266;14.188;2023-03-26T02:39:33;97185.66;;;9.48;62.24
68476;BME280;55464;48.266;14.188;2023-03-26T02:41:58;97191.50;;;9.46;62.45
68476;BME280;55464;48.266;14.188;2023-03-26T02:44:24;97191.16;;;9.48;62.54
68476;BME280;55464;48.266;14.188;2023-03-26T02:46:49;97187.16;;;9.45;62.78
68476;BME280;55464;48.266;14.188;2023-03-26T02:49:15;97191.50;;;9.46;62.71
68476;BME280;55464;48.266;14.188;2023-03-26T02:51:40;97193.22;;;9.51;62.62
68476;BME280;55464;48.266;14.188;2023-03-26T02:54:06;97188.41;;;9.48;62.77
68476;BME280;55464;48.266;14.188;2023-03-26T02:56:31;97180.84;;;9.44;62.76
68476;BME280;55464;48.266;14.188;2023-03-26T02:58:57;97190.28;;;9.43;62.79
68476;BME280;55464;48.266;14.188;2023-03-26T03:01:22;97186.25;;;9.41;62.96
68476;BME280;55464;48.266;14.188;2023-03-26T03:03:48;97174.47;;;9.40;62.79
68476;BME280;55464;48.266;14.188;2023-03-26T03:06:16;97183.00;;;9.51;62.86
68476;BME280;55464;48.266;14.188;2023-03-26T03:08:43;97181.69;;;9.45;62.72
68476;BME280;55464;48.266;14.188;2023-03-26T03:11:15;97185.66;;;9.48;63.09
68476;BME280;55464;48.266;14.188;2023-03-26T03:13:41;97181.75;;;9.49;62.96
68476;BME280;55464;48.266;14.188;2023-03-26T03:16:07;97192.38;;;9.50;63.20
68476;BME280;55464;48.266;14.188;2023-03-26T03:18:33;97190.03;;;9.49;63.20
68476;BME280;55464;48.266;14.188;2023-03-26T03:20:58;97172.78;;;9.52;63.05
68476;BME280;55464;48.266;14.188;2023-03-26T03:23:24;97160.00;;;9.43;63.29
68476;BME280;55464;48.266;14.188;2023-03-26T03:25:49;97172.34;;;9.50;63.24
68476;BME280;55464;48.266;14.188;2023-03-26T03:28:16;97165.72;;;9.51;63.71
68476;BME280;55464;48.266;14.188;2023-03-26T03:30:42;97173.13;;;9.50;63.68
68476;BME280;55464;48.266;14.188;2023-03-26T03:33:08;97175.09;;;9.50;63.75
68476;BME280;55464;48.266;14.188;2023-03-26T03:35:33;97164.44;;;9.48;63.84
68476;BME280;55464;48.266;14.188;2023-03-26T03:37:59;97185.31;;;9.49;63.93
68476;BME280;55464;48.266;14.188;2023-03-26T03:40:24;97176.63;;;9.47;64.00
68476;BME280;55464;48.266;14.188;2023-03-26T03:42:50;97178.09;;;9.44;64.12
68476;BME280;55464;48.266;14.188;2023-03-26T03:45:16;97178.44;;;9.43;64.05
68476;BME280;55464;48.266;14.188;2023-03-26T03:47:42;97181.69;;;9.45;64.04
68476;BME280;55464;48.266;14.188;2023-03-26T03:50:08;97169.50;;;9.46;63.78
68476;BME280;55464;48.266;14.188;2023-03-26T03:52:34;97168.72;;;9.45;63.99
68476;BME280;55464;48.266;14.188;2023-03-26T03:54:59;97171.13;;;9.47;63.73
68476;BME280;55464;48.266;14.188;2023-03-26T03:57:25;97166.06;;;9.49;63.26
68476;BME280;55464;48.266;14.188;2023-03-26T03:59:51;97160.91;;;9.48;63.51
68476;BME280;55464;48.266;14.188;2023-03-26T04:02:17;97162.03;;;9.46;63.68
68476;BME280;55464;48.266;14.188;2023-03-26T04:04:53;97157.25;;;9.43;63.64
68476;BME280;55464;48.266;14.188;2023-03-26T04:07:19;97152.91;;;9.42;63.59
68476;BME280;55464;48.266;14.188;2023-03-26T04:09:45;97158.41;;;9.42;63.64
68476;BME280;55464;48.266;14.188;2023-03-26T04:12:10;97151.66;;;9.40;63.33
68476;BME280;55464;48.266;14.188;2023-03-26T04:14:36;97152.91;;;9.42;63.69
68476;BME280;55464;48.266;14.188;2023-03-26T04:17:01;97144.91;;;9.37;63.57
68476;BME280;55464;48.266;14.188;2023-03-26T04:19:29;97143.69;;;9.35;63.59
68476;BME280;55464;48.266;14.188;2023-03-26T04:21:55;97144.81;;;9.34;63.49
68476;BME280;55464;48.266;14.188;2023-03-26T04:24:30;97140.34;;;9.29;63.30
68476;BME280;55464;48.266;14.188;2023-03-26T04:27:05;97151.47;;;9.33;63.15
68476;BME280;55464;48.266;14.188;2023-03-26T04:29:37;97136.91;;;9.32;63.11
68476;BME280;55464;48.266;14.188;2023-03-26T04:32:09;97142.31;;;9.28;63.03
68476;BME280;55464;48.266;14.188;2023-03-26T04:34:37;97142.31;;;9.28;62.93
68476;BME280;55464;48.266;14.188;2023-03-26T04:37:02;97121.31;;;9.20;62.75
68476;BME280;55464;48.266;14.188;2023-03-26T04:39:29;97124.84;;;9.21;62.76
68476;BME280;55464;48.266;14.188;2023-03-26T04:41:55;97122.00;;;9.17;62.57
68476;BME280;55464;48.266;14.188;2023-03-26T04:44:22;97117.97;;;9.15;62.66
68476;BME280;55464;48.266;14.188;2023-03-26T04:46:48;97110.81;;;9.10;62.88
68476;BME280;55464;48.266;14.188;2023-03-26T04:49:14;97122.59;;;9.11;62.81
68476;BME280;55464;48.266;14.188;2023-03-26T04:51:40;97122.59;;;9.11;62.48
68476;BME280;55464;48.266;14.188;2023-03-26T04:54:12;97127.22;;;9.06;62.63
68476;BME280;55464;48.266;14.188;2023-03-26T04:56:52;97120.69;;;8.99;62.62
68476;BME280;55464;48.266;14.188;2023-03-26T04:59:39;97124.22;;;8.99;62.74
68476;BME280;55464;48.266;14.188;2023-03-26T05:02:05;97132.47;;;8.99;62.70
68476;BME280;55464;48.266;14.188;2023-03-26T05:04:32;97125.41;;;8.98;62.68
68476;BME280;55464;48.266;14.188;2023-03-26T05:07:01;97122.66;;;8.98;62.69
68476;BME280;55464;48.266;14.188;2023-03-26T05:09:27;97114.06;;;9.00;62.52
68476;BME280;55464;48.266;14.188;2023-03-26T05:11:52;97107.31;;;8.97;62.75
68476;BME280;55464;48.266;14.188;2023-03-26T05:14:18;97113.38;;;9.03;62.68
68476;BME280;55464;48.266;14.188;2023-03-26T05:16:45;97104.75;;;9.04;62.42
68476;BME280;55464;48.266;14.188;2023-03-26T05:19:12;97120.19;;;9.09;62.48
68476;BME280;55464;48.266;14.188;2023-03-26T05:21:37;97112.28;;;9.07;62.44
68476;BME280;55464;48.266;14.188;2023-03-26T05:24:03;97109.63;;;9.11;62.22
68476;BME280;55464;48.266;14.188;2023-03-26T05:26:31;97111.50;;;9.07;62.33
68476;BME280;55464;48.266;14.188;2023-03-26T05:28:57;97111.94;;;9.09;62.32
68476;BME280;55464;48.266;14.188;2023-03-26T05:31:22;97120.53;;;9.07;62.20
68476;BME280;55464;48.266;14.188;2023-03-26T05:33:48;97118.59;;;9.08;62.38
68476;BME280;55464;48.266;14.188;2023-03-26T05:36:14;97118.03;;;9.02;62.46
68476;BME280;55464;48.266;14.188;2023-03-26T05:38:42;97126.97;;;8.99;62.78
68476;BME280;55464;48.266;14.188;2023-03-26T05:41:13;97116.38;;;8.98;63.12
68476;BME280;55464;48.266;14.188;2023-03-26T05:43:38;97123.09;;;9.00;63.31
68476;BME280;55464;48.266;14.188;2023-03-26T05:46:04;97121.63;;;9.03;63.46
68476;BME280;55464;48.266;14.188;2023-03-26T05:48:30;97117.25;;;9.02;63.65
68476;BME280;55464;48.266;14.188;2023-03-26T05:50:56;97114.94;;;9.04;63.51
68476;BME280;55464;48.266;14.188;2023-03-26T05:53:23;97116.91;;;9.03;63.81
68476;BME280;55464;48.266;14.188;2023-03-26T05:55:49;97127.47;;;9.01;63.85
68476;BME280;55464;48.266;14.188;2023-03-26T05:58:28;97115.63;;;9.01;64.16
68476;BME280;55464;48.266;14.188;2023-03-26T06:00:59;97130.66;;;9.03;64.02
68476;BME280;55464;48.266;14.188;2023-03-26T06:03:27;97121.22;;;9.04;63.93
68476;BME280;55464;48.266;14.188;2023-03-26T06:05:52;97124.81;;;9.05;64.20
68476;BME280;55464;48.266;14.188;2023-03-26T06:08:18;97133.06;;;9.05;64.30
68476;BME280;55464;48.266;14.188;2023-03-26T06:10:44;97128.00;;;9.07;64.47
68476;BME280;55464;48.266;14.188;2023-03-26T06:13:10;97123.63;;;9.06;64.20
68476;BME280;55464;48.266;14.188;2023-03-26T06:15:36;97124.22;;;9.12;64.47
68476;BME280;55464;48.266;14.188;2023-03-26T06:18:01;97125.44;;;9.14;64.79
68476;BME280;55464;48.266;14.188;2023-03-26T06:20:27;97121.91;;;9.14;64.46
68476;BME280;55464;48.266;14.188;2023-03-26T06:22:52;97124.66;;;9.14;64.30
68476;BME280;55464;48.266;14.188;2023-03-26T06:25:18;97114.44;;;9.14;65.08
68476;BME280;55464;48.266;14.188;2023-03-26T06:27:44;97117.97;;;9.15;65.06
68476;BME280;55464;48.266;14.188;2023-03-26T06:30:10;97109.38;;;9.16;64.68
68476;BME280;55464;48.266;14.188;2023-03-26T06:32:35;97112.59;;;9.18;65.04
68476;BME280;55464;48.266;14.188;2023-03-26T06:35:01;97112.22;;;9.20;64.65
68476;BME280;55464;48.266;14.188;2023-03-26T06:37:26;97117.81;;;9.23;64.76
68476;BME280;55464;48.266;14.188;2023-03-26T06:39:52;97116.69;;;9.24;64.83
68476;BME280;55464;48.266;14.188;2023-03-26T06:42:17;97116.00;;;9.27;64.91
68476;BME280;55464;48.266;14.188;2023-03-26T06:44:42;97107.91;;;9.35;65.28
68476;BME280;55464;48.266;14.188;2023-03-26T06:47:08;97112.69;;;9.38;65.04
68476;BME280;55464;48.266;14.188;2023-03-26T06:49:33;97109.69;;;9.43;65.21
68476;BME280;55464;48.266;14.188;2023-03-26T06:51:59;97107.03;;;9.46;65.24
68476;BME280;55464;48.266;14.188;2023-03-26T06:54:27;97104.28;;;9.46;65.43
68476;BME280;55464;48.266;14.188;2023-03-26T06:56:52;97101.19;;;9.48;65.56
68476;BME280;55464;48.266;14.188;2023-03-26T06:59:18;97102.88;;;9.53;65.51
68476;BME280;55464;48.266;14.188;2023-03-26T07:01:43;97104.09;;;9.55;65.16
68476;BME280;55464;48.266;14.188;2023-03-26T07:04:09;97093.91;;;9.56;65.31
68476;BME280;55464;48.266;14.188;2023-03-26T07:06:34;97090.63;;;9.66;64.67
68476;BME280;55464;48.266;14.188;2023-03-26T07:09:00;97089.47;;;9.67;64.17
68476;BME280;55464;48.266;14.188;2023-03-26T07:11:25;97089.91;;;9.69;64.92
68476;BME280;55464;48.266;14.188;2023-03-26T07:13:51;97086.09;;;9.74;63.89
68476;BME280;55464;48.266;14.188;2023-03-26T07:16:16;97082.28;;;9.78;64.14
68476;BME280;55464;48.266;14.188;2023-03-26T07:18:42;97078.81;;;9.81;64.36
68476;BME280;55464;48.266;14.188;2023-03-26T07:21:08;97082.63;;;9.93;64.60
68476;BME280;55464;48.266;14.188;2023-03-26T07:23:34;97081.19;;;9.99;64.59
68476;BME280;55464;48.266;14.188;2023-03-26T07:26:12;97072.84;;;9.95;64.31
68476;BME280;55464;48.266;14.188;2023-03-26T07:28:42;97071.84;;;10.03;62.94
68476;BME280;55464;48.266;14.188;2023-03-26T07:31:30;97061.91;;;9.99;63.65
68476;BME280;55464;48.266;14.188;2023-03-26T07:34:25;97051.88;;;10.07;62.09
68476;BME280;55464;48.266;14.188;2023-03-26T07:37:04;97054.97;;;10.05;62.03
68476;BME280;55464;48.266;14.188;2023-03-26T07:39:38;97040.50;;;10.08;62.14
68476;BME280;55464;48.266;14.188;2023-03-26T07:42:21;97033.16;;;9.96;62.24
68476;BME280;55464;48.266;14.188;2023-03-26T07:45:08;97032.25;;;10.08;60.74
68476;BME280;55464;48.266;14.188;2023-03-26T07:47:40;97031.00;;;10.06;62.32
68476;BME280;55464;48.266;14.188;2023-03-26T07:50:06;97036.22;;;10.11;62.95
68476;BME280;55464;48.266;14.188;2023-03-26T07:52:32;97037.63;;;10.20;62.22
68476;BME280;55464;48.266;14.188;2023-03-26T07:54:58;97024.28;;;10.22;63.46
68476;BME280;55464;48.266;14.188;2023-03-26T08:00:39;97013.69;;;10.25;63.65
68476;BME280;55464;48.266;14.188;2023-03-26T08:03:21;97009.69;;;10.38;64.04
68476;BME280;55464;48.266;14.188;2023-03-26T08:06:06;97010.47;;;10.38;63.50
68476;BME280;55464;48.266;14.188;2023-03-26T08:09:27;97011.91;;;10.32;62.52
68476;BME280;55464;48.266;14.188;2023-03-26T08:11:57;97001.44;;;10.38;62.94
68476;BME280;55464;48.266;14.188;2023-03-26T08:14:44;96991.91;;;10.35;61.94
68476;BME280;55464;48.266;14.188;2023-03-26T08:17:14;96986.63;;;10.46;63.69
68476;BME280;55464;48.266;14.188;2023-03-26T08:22:24;96970.63;;;10.52;62.12
68476;BME280;55464;48.266;14.188;2023-03-26T08:25:16;96966.63;;;10.49;61.69
68476;BME280;55464;48.266;14.188;2023-03-26T08:30:26;96969.28;;;10.65;60.56
68476;BME280;55464;48.266;14.188;2023-03-26T08:33:03;96957.63;;;10.52;62.10
68476;BME280;55464;48.266;14.188;2023-03-26T08:35:29;96970.00;;;10.62;62.27
68476;BME280;55464;48.266;14.188;2023-03-26T08:37:55;96947.53;;;10.60;61.87
68476;BME280;55464;48.266;14.188;2023-03-26T08:46:19;96939.81;;;10.69;61.89
68476;BME280;55464;48.266;14.188;2023-03-26T08:57:50;96921.34;;;10.93;58.06
68476;BME280;55464;48.266;14.188;2023-03-26T09:33:43;96838.91;;;11.11;57.11
68476;BME280;55464;48.266;14.188;2023-03-26T09:36:37;96823.09;;;11.08;57.14
68476;BME280;55464;48.266;14.188;2023-03-26T09:42:07;96808.16;;;11.09;56.66
68476;BME280;55464;48.266;14.188;2023-03-26T09:50:24;96785.72;;;11.10;56.29
68476;BME280;55464;48.266;14.188;2023-03-26T09:55:49;96782.28;;;11.17;56.69
68476;BME280;55464;48.266;14.188;2023-03-26T09:58:41;96775.25;;;11.23;57.42
68476;BME280;55464;48.266;14.188;2023-03-26T10:09:39;96739.53;;;11.34;58.48
68476;BME280;55464;48.266;14.188;2023-03-26T10:26:02;96714.38;;;11.39;56.04
68476;BME280;55464;48.266;14.188;2023-03-26T10:29:02;96706.91;;;11.40;56.14
68476;BME280;55464;48.266;14.188;2023-03-26T10:37:16;96697.47;;;11.44;56.52
68476;BME280;55464;48.266;14.188;2023-03-26T10:45:39;96685.66;;;11.44;53.23
68476;BME280;55464;48.266;14.188;2023-03-26T10:51:28;96673.41;;;11.41;53.79
68476;BME280;55464;48.266;14.188;2023-03-26T10:56:43;96669.88;;;11.44;53.76
68476;BME280;55464;48.266;14.188;2023-03-26T10:59:14;96664.81;;;11.50;56.20
68476;BME280;55464;48.266;14.188;2023-03-26T11:01:49;96636.44;;;11.49;56.15
68476;BME280;55464;48.266;14.188;2023-03-26T11:04:35;96636.13;;;11.58;58.20
68476;BME280;55464;48.266;14.188;2023-03-26T11:07:16;96638.94;;;11.62;57.28
68476;BME280;55464;48.266;14.188;2023-03-26T11:17:53;96650.84;;;11.69;56.93
68476;BME280;55464;48.266;14.188;2023-03-26T11:20:55;96636.66;;;11.71;54.66
68476;BME280;55464;48.266;14.188;2023-03-26T11:26:14;96645.00;;;11.75;54.44
68476;BME280;55464;48.266;14.188;2023-03-26T11:31:44;96668.28;;;11.81;55.08
68476;BME280;55464;48.266;14.188;2023-03-26T11:34:16;96664.34;;;11.78;53.47
68476;BME280;55464;48.266;14.188;2023-03-26T11:36:47;96661.97;;;11.77;53.28
68476;BME280;55464;48.266;14.188;2023-03-26T11:39:21;96650.44;;;11.71;52.93
68476;BME280;55464;48.266;14.188;2023-03-26T11:41:48;96651.63;;;11.70;53.42
68476;BME280;55464;48.266;14.188;2023-03-26T11:44:48;96656.03;;;11.75;53.90
68476;BME280;55464;48.266;14.188;2023-03-26T11:47:20;96672.97;;;11.73;54.50
68476;BME280;55464;48.266;14.188;2023-03-26T11:49:48;96668.94;;;11.67;53.58
68476;BME280;55464;48.266;14.188;2023-03-26T11:52:16;96692.22;;;11.66;54.27
68476;BME280;55464;48.266;14.188;2023-03-26T11:54:41;96694.56;;;11.67;53.60
68476;BME280;55464;48.266;14.188;2023-03-26T11:57:14;96677.22;;;11.67;53.78
68476;BME280;55464;48.266;14.188;2023-03-26T11:59:50;96686.69;;;11.66;53.81
68476;BME280;55464;48.266;14.188;2023-03-26T12:02:27;96681.97;;;11.66;54.22
68476;BME280;55464;48.266;14.188;2023-03-26T12:05:22;96681.59;;;11.68;54.41
68476;BME280;55464;48.266;14.188;2023-03-26T12:08:17;96670.13;;;11.66;54.71
68476;BME280;55464;48.266;14.188;2023-03-26T12:10:43;96657.47;;;11.61;54.71
68476;BME280;55464;48.266;14.188;2023-03-26T12:13:37;96645.69;;;11.64;55.12
68476;BME280;55464;48.266;14.188;2023-03-26T12:16:11;96647.66;;;11.67;54.86
68476;BME280;55464;48.266;14.188;2023-03-26T12:18:38;96638.22;;;11.68;54.81
68476;BME280;55464;48.266;14.188;2023-03-26T12:21:09;96640.97;;;11.68;54.83
68476;BME280;55464;48.266;14.188;2023-03-26T12:23:40;96635.84;;;11.70;55.53
68476;BME280;55464;48.266;14.188;2023-03-26T12:26:13;96630.72;;;11.69;54.95
68476;BME280;55464;48.266;14.188;2023-03-26T12:28:44;96610.59;;;11.68;55.08
68476;BME280;55464;48.266;14.188;2023-03-26T12:31:11;96605.88;;;11.69;56.68
68476;BME280;55464;48.266;14.188;2023-03-26T12:33:42;96613.41;;;11.72;57.40
68476;BME280;55464;48.266;14.188;2023-03-26T12:36:27;96609.44;;;11.69;55.93
68476;BME280;55464;48.266;14.188;2023-03-26T12:38:55;96597.59;;;11.69;54.78
68476;BME280;55464;48.266;14.188;2023-03-26T12:41:33;96607.06;;;11.68;54.88
68476;BME280;55464;48.266;14.188;2023-03-26T12:46:48;96599.94;;;11.67;54.79
68476;BME280;55464;48.266;14.188;2023-03-26T12:49:19;96602.72;;;11.67;55.04
68476;BME280;55464;48.266;14.188;2023-03-26T12:51:54;96595.56;;;11.62;55.12
68476;BME280;55464;48.266;14.188;2023-03-26T12:54:39;96606.22;;;11.64;55.35
68476;BME280;55464;48.266;14.188;2023-03-26T13:11:29;96590.91;;;11.70;55.02
68476;BME280;55464;48.266;14.188;2023-03-26T13:14:11;96595.69;;;11.73;55.33
68476;BME280;55464;48.266;14.188;2023-03-26T13:35:32;96596.72;;;11.58;57.97
68476;BME280;55464;48.266;14.188;2023-03-26T13:40:32;96586.13;;;11.63;59.45
68476;BME280;55464;48.266;14.188;2023-03-26T13:48:31;96578.38;;;11.35;63.75
68476;BME280;55464;48.266;14.188;2023-03-26T13:51:08;96577.47;;;11.24;64.88
68476;BME280;55464;48.266;14.188;2023-03-26T13:53:59;96565.22;;;11.21;64.33
68476;BME280;55464;48.266;14.188;2023-03-26T13:56:40;96555.00;;;11.25;64.42
68476;BME280;55464;48.266;14.188;2023-03-26T13:59:13;96555.31;;;11.16;65.90
68476;BME280;55464;48.266;14.188;2023-03-26T14:01:46;96568.66;;;11.11;64.30
68476;BME280;55464;48.266;14.188;2023-03-26T14:04:29;96566.66;;;11.08;64.26
68476;BME280;55464;48.266;14.188;2023-03-26T14:07:12;96558.69;;;10.99;64.60
68476;BME280;55464;48.266;14.188;2023-03-26T14:14:44;96572.94;;;11.05;66.13
68476;BME280;55464;48.266;14.188;2023-03-26T14:37:04;96533.25;;;11.16;64.87
68476;BME280;55464;48.266;14.188;2023-03-26T14:45:44;96520.66;;;11.15;64.88
68476;BME280;55464;48.266;14.188;2023-03-26T14:53:50;96519.00;;;11.07;64.84
68476;BME280;55464;48.266;14.188;2023-03-26T15:35:37;96484.44;;;11.17;65.03
68476;BME280;55464;48.266;14.188;2023-03-26T15:44:32;96492.22;;;11.08;65.60
68476;BME280;55464;48.266;14.188;2023-03-26T15:49:57;96491.41;;;11.07;65.95
68476;BME280;55464;48.266;14.188;2023-03-26T15:52:36;96483.16;;;11.07;66.18
68476;BME280;55464;48.266;14.188;2023-03-26T15:55:24;96482.38;;;11.07;66.36
68476;BME280;55464;48.266;14.188;2023-03-26T15:58:26;96478.03;;;11.09;66.46
68476;BME280;55464;48.266;14.188;2023-03-26T16:01:11;96477.66;;;11.11;66.03
68476;BME280;55464;48.266;14.188;2023-03-26T16:11:58;96454.41;;;11.08;65.72
68476;BME280;55464;48.266;14.188;2023-03-26T16:15:11;96462.69;;;11.08;65.58
68476;BME280;55464;48.266;14.188;2023-03-26T16:36:41;96462.19;;;10.99;65.53
68476;BME280;55464;48.266;14.188;2023-03-26T16:47:00;96464.47;;;10.90;62.12
68476;BME280;55464;48.266;14.188;2023-03-26T16:49:48;96469.94;;;10.86;60.50
68476;BME280;55464;48.266;14.188;2023-03-26T16:52:26;96467.94;;;10.83;59.89
68476;BME280;55464;48.266;14.188;2023-03-26T16:57:44;96459.22;;;10.77;60.11
68476;BME280;55464;48.266;14.188;2023-03-26T17:03:37;96461.13;;;10.70;60.40
68476;BME280;55464;48.266;14.188;2023-03-26T17:06:46;96466.66;;;10.70;61.21
68476;BME280;55464;48.266;14.188;2023-03-26T17:09:50;96469.41;;;10.70;61.66
68476;BME280;55464;48.266;14.188;2023-03-26T17:20:24;96457.13;;;10.64;62.63
68476;BME280;55464;48.266;14.188;2023-03-26T17:23:20;96451.22;;;10.65;62.38
68476;BME280;55464;48.266;14.188;2023-03-26T17:25:59;96445.31;;;10.63;62.55
68476;BME280;55464;48.266;14.188;2023-03-26T17:31:17;96439.84;;;10.67;62.71
68476;BME280;55464;48.266;14.188;2023-03-26T17:33:45;96435.88;;;10.64;63.17
68476;BME280;55464;48.266;14.188;2023-03-26T17:41:07;96441.00;;;10.66;63.76
68476;BME280;55464;48.266;14.188;2023-03-26T17:43:45;96446.09;;;10.64;64.11
68476;BME280;55464;48.266;14.188;2023-03-26T17:46:24;96450.44;;;10.65;64.35
68476;BME280;55464;48.266;14.188;2023-03-26T17:49:18;96444.50;;;10.59;64.54
68476;BME280;55464;48.266;14.188;2023-03-26T17:54:30;96454.78;;;10.66;64.37
68476;BME280;55464;48.266;14.188;2023-03-26T17:57:01;96442.06;;;10.54;64.36
68476;BME280;55464;48.266;14.188;2023-03-26T17:59:28;96448.00;;;10.56;64.54
68476;BME280;55464;48.266;14.188;2023-03-26T18:01:56;96459.00;;;10.56;64.62
68476;BME280;55464;48.266;14.188;2023-03-26T18:04:35;96446.81;;;10.57;64.56
68476;BME280;55464;48.266;14.188;2023-03-26T18:07:11;96447.59;;;10.54;64.95
68476;BME280;55464;48.266;14.188;2023-03-26T18:17:40;96411.28;;;10.48;66.37
68476;BME280;55464;48.266;14.188;2023-03-26T18:20:21;96422.31;;;10.48;66.59
68476;BME280;55464;48.266;14.188;2023-03-26T18:22:48;96419.16;;;10.46;66.98
68476;BME280;55464;48.266;14.188;2023-03-26T18:25:28;96407.28;;;10.38;67.25
68476;BME280;55464;48.266;14.188;2023-03-26T18:27:56;96413.59;;;10.43;67.23
68476;BME280;55464;48.266;14.188;2023-03-26T18:30:23;96419.44;;;10.37;67.11
68476;BME280;55464;48.266;14.188;2023-03-26T18:33:13;96410.41;;;10.37;67.12
68476;BME280;55464;48.266;14.188;2023-03-26T18:35:42;96423.75;;;10.35;66.96
68476;BME280;55464;48.266;14.188;2023-03-26T18:38:34;96425.72;;;10.34;66.70
68476;BME280;55464;48.266;14.188;2023-03-26T18:41:00;96430.44;;;10.34;66.83
68476;BME280;55464;48.266;14.188;2023-03-26T18:43:25;96437.91;;;10.33;66.71
68476;BME280;55464;48.266;14.188;2023-03-26T18:45:52;96434.28;;;10.29;66.65
68476;BME280;55464;48.266;14.188;2023-03-26T18:48:20;96442.25;;;10.34;66.71
68476;BME280;55464;48.266;14.188;2023-03-26T18:50:53;96426.50;;;10.35;66.65
68476;BME280;55464;48.266;14.188;2023-03-26T18:53:22;96423.34;;;10.33;66.49